sensor_id;sensor_type;location;lat;lon;timestamp;pressure;altitude;pressure_sealevel;temperature;humidity
49311;BME280;35177;45.900;5.946;2023-10-08T00:02:09;98614.13;;;10.33;92.06
49311;BME280;35177;45.900;5.946;2023-10-08T00:04:35;98615.59;;;10.22;95.64
49311;BME280;35177;45.900;5.946;2023-10-08T00:07:06;98608.22;;;10.28;94.94
49311;BME280;35177;45.900;5.946;2023-10-08T00:09:34;98610.75;;;9.94;93.92
49311;BME280;35177;45.900;5.946;2023-10-08T00:12:04;98612.88;;;9.86;93.96
49311;BME280;35177;45.900;5.946;2023-10-08T00:14:30;98609.81;;;9.76;92.71
49311;BME280;35177;45.900;5.946;2023-10-08T00:16:57;98618.72;;;9.74;94.16
49311;BME280;35177;45.900;5.946;2023-10-08T00:19:23;98619.16;;;9.84;92.38
49311;BME280;35177;45.900;5.946;2023-10-08T00:21:49;98620.16;;;9.81;93.17
49311;BME280;35177;45.900;5.946;2023-10-08T00:24:18;98619.72;;;9.53;92.83
49311;BME280;35177;45.900;5.946;2023-10-08T00:26:43;98625.78;;;9.73;92.26
49311;BME280;35177;45.900;5.946;2023-10-08T00:29:09;98625.41;;;9.83;92.75
49311;BME280;35177;45.900;5.946;2023-10-08T00:31:42;98621.94;;;9.99;92.51
49311;BME280;35177;45.900;5.946;2023-10-08T00:34:13;98624.78;;;9.95;93.93
49311;BME280;35177;45.900;5.946;2023-10-08T00:36:43;98618.81;;;9.91;93.67
49311;BME280;35177;45.900;5.946;2023-10-08T00:39:09;98616.81;;;9.96;93.32
49311;BME280;35177;45.900;5.946;2023-10-08T00:41:42;98622.53;;;10.06;93.41
49311;BME280;35177;45.900;5.946;2023-10-08T00:44:12;98628.81;;;10.03;94.80
49311;BME280;35177;45.900;5.946;2023-10-08T00:46:40;98616.72;;;9.79;94.20
49311;BME280;35177;45.900;5.946;2023-10-08T00:49:16;98619.38;;;9.79;94.81
49311;BME280;35177;45.900;5.946;2023-10-08T00:52:03;98613.66;;;9.69;96.16
49311;BME280;35177;45.900;5.946;2023-10-08T00:54:38;98625.31;;;9.84;95.80
49311;BME280;35177;45.900;5.946;2023-10-08T00:57:21;98614.38;;;9.73;93.46
49311;BME280;35177;45.900;5.946;2023-10-08T00:59:48;98619.78;;;9.51;93.84
49311;BME280;35177;45.900;5.946;2023-10-08T01:02:21;98615.63;;;9.46;93.96
49311;BME280;35177;45.900;5.946;2023-10-08T01:04:53;98604.81;;;9.52;93.34
49311;BME280;35177;45.900;5.946;2023-10-08T01:07:20;98601.66;;;9.62;94.37
49311;BME280;35177;45.900;5.946;2023-10-08T01:09:46;98605.25;;;9.61;94.18
49311;BME280;35177;45.900;5.946;2023-10-08T01:12:23;98604.63;;;9.55;93.85
49311;BME280;35177;45.900;5.946;2023-10-08T01:14:53;98605.69;;;9.32;94.34
49311;BME280;35177;45.900;5.946;2023-10-08T01:17:20;98609.72;;;9.41;93.85
49311;BME280;35177;45.900;5.946;2023-10-08T01:19:50;98604.81;;;9.32;93.70
49311;BME280;35177;45.900;5.946;2023-10-08T01:22:25;98606.56;;;9.33;93.55
49311;BME280;35177;45.900;5.946;2023-10-08T01:24:54;98604.69;;;9.35;93.61
49311;BME280;35177;45.900;5.946;2023-10-08T01:27:19;98608.34;;;9.51;91.54
49311;BME280;35177;45.900;5.946;2023-10-08T01:29:52;98602.06;;;9.53;91.34
49311;BME280;35177;45.900;5.946;2023-10-08T01:32:19;98602.94;;;9.54;91.89
49311;BME280;35177;45.900;5.946;2023-10-08T01:34:45;98611.75;;;9.34;93.11
49311;BME280;35177;45.900;5.946;2023-10-08T01:37:18;98603.06;;;9.32;91.47
49311;BME280;35177;45.900;5.946;2023-10-08T01:39:47;98610.16;;;9.12;92.11
49311;BME280;35177;45.900;5.946;2023-10-08T01:42:15;98601.16;;;9.16;94.45
49311;BME280;35177;45.900;5.946;2023-10-08T01:44:47;98603.59;;;9.20;92.54
49311;BME280;35177;45.900;5.946;2023-10-08T01:47:16;98593.25;;;9.16;92.43
49311;BME280;35177;45.900;5.946;2023-10-08T01:49:45;98597.41;;;9.21;92.52
49311;BME280;35177;45.900;5.946;2023-10-08T01:52:12;98608.03;;;9.20;93.06
49311;BME280;35177;45.900;5.946;2023-10-08T01:54:49;98602.88;;;9.17;92.61
49311;BME280;35177;45.900;5.946;2023-10-08T01:57:16;98604.91;;;9.30;92.17
49311;BME280;35177;45.900;5.946;2023-10-08T01:59:42;98600.50;;;9.31;91.83
49311;BME280;35177;45.900;5.946;2023-10-08T02:02:09;98601.91;;;9.19;93.47
49311;BME280;35177;45.900;5.946;2023-10-08T02:04:35;98605.53;;;9.17;93.73
49311;BME280;35177;45.900;5.946;2023-10-08T02:07:02;98606.56;;;9.33;92.54
49311;BME280;35177;45.900;5.946;2023-10-08T02:09:29;98604.09;;;9.09;93.04
49311;BME280;35177;45.900;5.946;2023-10-08T02:11:54;98604.69;;;8.96;92.15
49311;BME280;35177;45.900;5.946;2023-10-08T02:14:21;98599.34;;;8.77;92.11
49311;BME280;35177;45.900;5.946;2023-10-08T02:16:48;98598.22;;;9.03;91.75
49311;BME280;35177;45.900;5.946;2023-10-08T02:19:15;98603.59;;;9.20;93.10
49311;BME280;35177;45.900;5.946;2023-10-08T02:21:44;98602.50;;;9.05;94.43
49311;BME280;35177;45.900;5.946;2023-10-08T02:24:11;98604.81;;;8.93;95.78
49311;BME280;35177;45.900;5.946;2023-10-08T02:26:38;98608.41;;;8.92;95.53
49311;BME280;35177;45.900;5.946;2023-10-08T02:29:04;98602.81;;;9.18;93.94
49311;BME280;35177;45.900;5.946;2023-10-08T02:31:39;98608.66;;;9.25;93.54
49311;BME280;35177;45.900;5.946;2023-10-08T02:34:09;98601.94;;;9.18;92.85
49311;BME280;35177;45.900;5.946;2023-10-08T02:36:35;98610.97;;;8.93;93.81
49311;BME280;35177;45.900;5.946;2023-10-08T02:39:06;98607.38;;;8.94;93.27
49311;BME280;35177;45.900;5.946;2023-10-08T02:41:42;98608.72;;;8.84;91.86
49311;BME280;35177;45.900;5.946;2023-10-08T02:44:08;98606.53;;;8.74;92.99
49311;BME280;35177;45.900;5.946;2023-10-08T02:46:39;98608.06;;;8.79;92.97
49311;BME280;35177;45.900;5.946;2023-10-08T02:49:09;98608.59;;;8.87;92.85
49311;BME280;35177;45.900;5.946;2023-10-08T02:51:40;98617.69;;;9.00;93.62
49311;BME280;35177;45.900;5.946;2023-10-08T02:54:09;98609.31;;;8.71;94.82
49311;BME280;35177;45.900;5.946;2023-10-08T02:56:42;98612.38;;;8.60;93.56
49311;BME280;35177;45.900;5.946;2023-10-08T02:59:10;98613.72;;;8.70;94.52
49311;BME280;35177;45.900;5.946;2023-10-08T03:01:37;98613.44;;;8.56;93.18
49311;BME280;35177;45.900;5.946;2023-10-08T03:04:08;98613.84;;;8.47;93.82
49311;BME280;35177;45.900;5.946;2023-10-08T03:06:44;98616.16;;;8.55;91.98
49311;BME280;35177;45.900;5.946;2023-10-08T03:09:15;98624.28;;;8.50;95.57
49311;BME280;35177;45.900;5.946;2023-10-08T03:11:40;98616.81;;;8.60;95.78
49311;BME280;35177;45.900;5.946;2023-10-08T03:14:12;98617.28;;;8.69;95.02
49311;BME280;35177;45.900;5.946;2023-10-08T03:16:42;98618.34;;;8.85;94.30
49311;BME280;35177;45.900;5.946;2023-10-08T03:19:13;98623.63;;;8.85;95.01
49311;BME280;35177;45.900;5.946;2023-10-08T03:21:43;98624.66;;;9.01;95.94
49311;BME280;35177;45.900;5.946;2023-10-08T03:24:16;98627.72;;;8.72;94.25
49311;BME280;35177;45.900;5.946;2023-10-08T03:27:16;98628.81;;;8.67;95.40
49311;BME280;35177;45.900;5.946;2023-10-08T03:29:46;98635.25;;;8.81;93.23
49311;BME280;35177;45.900;5.946;2023-10-08T03:32:13;98629.59;;;8.49;94.32
49311;BME280;35177;45.900;5.946;2023-10-08T03:34:49;98630.72;;;8.43;94.81
49311;BME280;35177;45.900;5.946;2023-10-08T03:37:17;98632.81;;;8.55;94.29
49311;BME280;35177;45.900;5.946;2023-10-08T03:39:49;98624.50;;;8.44;92.71
49311;BME280;35177;45.900;5.946;2023-10-08T03:42:26;98631.31;;;8.28;93.85
49311;BME280;35177;45.900;5.946;2023-10-08T03:44:55;98629.00;;;8.42;93.08
49311;BME280;35177;45.900;5.946;2023-10-08T03:47:21;98628.69;;;8.28;94.00
49311;BME280;35177;45.900;5.946;2023-10-08T03:49:54;98623.06;;;8.14;92.91
49311;BME280;35177;45.900;5.946;2023-10-08T03:52:20;98627.06;;;8.24;95.84
49311;BME280;35177;45.900;5.946;2023-10-08T03:54:50;98632.28;;;8.25;93.93
49311;BME280;35177;45.900;5.946;2023-10-08T03:57:36;98625.50;;;8.20;94.56
49311;BME280;35177;45.900;5.946;2023-10-08T04:00:11;98620.88;;;8.47;92.44
49311;BME280;35177;45.900;5.946;2023-10-08T04:02:40;98630.94;;;8.37;92.88
49311;BME280;35177;45.900;5.946;2023-10-08T04:05:06;98629.19;;;8.37;94.12
49311;BME280;35177;45.900;5.946;2023-10-08T04:07:45;98630.75;;;8.42;95.03
49311;BME280;35177;45.900;5.946;2023-10-08T04:10:32;98631.50;;;8.45;93.84
49311;BME280;35177;45.900;5.946;2023-10-08T04:13:06;98626.91;;;8.28;92.81
49311;BME280;35177;45.900;5.946;2023-10-08T04:15:36;98624.09;;;8.33;95.64
49311;BME280;35177;45.900;5.946;2023-10-08T04:18:11;98628.97;;;8.20;93.72
49311;BME280;35177;45.900;5.946;2023-10-08T04:20:38;98632.19;;;8.28;94.22
49311;BME280;35177;45.900;5.946;2023-10-08T04:25:32;98635.56;;;8.32;94.04
49311;BME280;35177;45.900;5.946;2023-10-08T04:27:58;98632.91;;;8.32;94.70
49311;BME280;35177;45.900;5.946;2023-10-08T04:30:27;98631.94;;;8.34;94.89
49311;BME280;35177;45.900;5.946;2023-10-08T04:33:02;98635.97;;;8.21;93.03
49311;BME280;35177;45.900;5.946;2023-10-08T04:35:39;98641.66;;;8.11;93.03
49311;BME280;35177;45.900;5.946;2023-10-08T04:38:20;98642.75;;;8.05;93.05
49311;BME280;35177;45.900;5.946;2023-10-08T04:40:48;98635.59;;;8.09;92.42
49311;BME280;35177;45.900;5.946;2023-10-08T04:43:15;98637.06;;;8.16;94.15
49311;BME280;35177;45.900;5.946;2023-10-08T04:45:41;98640.63;;;8.15;93.34
49311;BME280;35177;45.900;5.946;2023-10-08T04:48:06;98640.47;;;8.18;94.79
49311;BME280;35177;45.900;5.946;2023-10-08T04:50:35;98639.84;;;8.13;92.89
49311;BME280;35177;45.900;5.946;2023-10-08T04:53:03;98637.06;;;8.16;95.46
49311;BME280;35177;45.900;5.946;2023-10-08T04:55:36;98642.75;;;8.28;94.48
49311;BME280;35177;45.900;5.946;2023-10-08T04:58:07;98640.19;;;8.27;95.30
49311;BME280;35177;45.900;5.946;2023-10-08T05:00:44;98650.47;;;8.33;94.27
49311;BME280;35177;45.900;5.946;2023-10-08T05:03:19;98647.72;;;8.36;94.76
49311;BME280;35177;45.900;5.946;2023-10-08T05:05:45;98647.22;;;8.25;95.58
49311;BME280;35177;45.900;5.946;2023-10-08T05:08:29;98647.22;;;8.25;93.62
49311;BME280;35177;45.900;5.946;2023-10-08T05:10:58;98648.66;;;8.12;93.39
49311;BME280;35177;45.900;5.946;2023-10-08T05:13:40;98650.06;;;7.99;93.48
49311;BME280;35177;45.900;5.946;2023-10-08T05:16:20;98650.53;;;7.87;93.73
49311;BME280;35177;45.900;5.946;2023-10-08T05:19:01;98649.91;;;8.02;94.34
49311;BME280;35177;45.900;5.946;2023-10-08T05:21:49;98650.25;;;7.94;92.60
49311;BME280;35177;45.900;5.946;2023-10-08T05:24:27;98651.72;;;8.01;93.52
49311;BME280;35177;45.900;5.946;2023-10-08T05:27:03;98655.47;;;8.17;93.58
49311;BME280;35177;45.900;5.946;2023-10-08T05:29:54;98652.94;;;8.14;93.19
49311;BME280;35177;45.900;5.946;2023-10-08T05:32:38;98662.69;;;8.12;92.79
49311;BME280;35177;45.900;5.946;2023-10-08T05:35:09;98659.31;;;8.09;93.46
49311;BME280;35177;45.900;5.946;2023-10-08T05:37:53;98660.97;;;7.90;93.44
49311;BME280;35177;45.900;5.946;2023-10-08T05:40:38;98658.44;;;7.87;93.21
49311;BME280;35177;45.900;5.946;2023-10-08T05:43:24;98663.00;;;7.82;94.24
49311;BME280;35177;45.900;5.946;2023-10-08T05:46:15;98664.06;;;7.99;94.05
49311;BME280;35177;45.900;5.946;2023-10-08T05:49:06;98669.16;;;7.82;93.89
49311;BME280;35177;45.900;5.946;2023-10-08T05:51:37;98667.13;;;7.89;93.87
49311;BME280;35177;45.900;5.946;2023-10-08T05:54:18;98671.28;;;7.72;94.80
49311;BME280;35177;45.900;5.946;2023-10-08T05:57:08;98672.88;;;7.77;95.91
49311;BME280;35177;45.900;5.946;2023-10-08T05:59:44;98676.09;;;7.85;94.90
49311;BME280;35177;45.900;5.946;2023-10-08T06:05:00;98685.34;;;7.95;95.31
49311;BME280;35177;45.900;5.946;2023-10-08T06:07:37;98679.59;;;8.07;96.42
49311;BME280;35177;45.900;5.946;2023-10-08T06:10:15;98678.22;;;8.20;96.04
49311;BME280;35177;45.900;5.946;2023-10-08T06:18:24;98687.50;;;8.30;97.22
49311;BME280;35177;45.900;5.946;2023-10-08T06:20:56;98693.50;;;8.55;95.99
49311;BME280;35177;45.900;5.946;2023-10-08T06:23:24;98693.94;;;8.66;96.52
49311;BME280;35177;45.900;5.946;2023-10-08T06:25:51;98698.06;;;8.73;95.96
49311;BME280;35177;45.900;5.946;2023-10-08T06:28:23;98703.63;;;8.87;96.38
49311;BME280;35177;45.900;5.946;2023-10-08T06:30:52;98704.16;;;8.95;96.11
49311;BME280;35177;45.900;5.946;2023-10-08T06:33:24;98707.13;;;9.08;96.29
49311;BME280;35177;45.900;5.946;2023-10-08T06:35:56;98703.44;;;9.12;96.39
49311;BME280;35177;45.900;5.946;2023-10-08T06:38:32;98707.41;;;9.22;96.13
49311;BME280;35177;45.900;5.946;2023-10-08T06:40:58;98706.94;;;9.33;95.54
49311;BME280;35177;45.900;5.946;2023-10-08T06:43:42;98708.88;;;9.48;95.17
49311;BME280;35177;45.900;5.946;2023-10-08T06:46:12;98707.09;;;9.68;95.39
49311;BME280;35177;45.900;5.946;2023-10-08T06:48:38;98709.53;;;9.73;94.83
49311;BME280;35177;45.900;5.946;2023-10-08T06:51:08;98719.41;;;9.88;95.06
49311;BME280;35177;45.900;5.946;2023-10-08T06:53:41;98721.97;;;9.90;94.60
49311;BME280;35177;45.900;5.946;2023-10-08T06:56:07;98722.19;;;10.04;94.97
49311;BME280;35177;45.900;5.946;2023-10-08T06:58:35;98718.25;;;10.14;93.81
49311;BME280;35177;45.900;5.946;2023-10-08T07:01:01;98726.91;;;10.17;94.12
49311;BME280;35177;45.900;5.946;2023-10-08T07:03:34;98726.41;;;10.28;95.68
49311;BME280;35177;45.900;5.946;2023-10-08T07:06:01;98727.03;;;10.33;94.84
49311;BME280;35177;45.900;5.946;2023-10-08T07:08:42;98736.06;;;10.48;94.70
49311;BME280;35177;45.900;5.946;2023-10-08T07:11:08;98736.09;;;10.46;93.97
49311;BME280;35177;45.900;5.946;2023-10-08T07:13:37;98727.88;;;10.52;97.67
49311;BME280;35177;45.900;5.946;2023-10-08T07:16:02;98736.84;;;10.67;95.58
49311;BME280;35177;45.900;5.946;2023-10-08T07:18:29;98733.28;;;10.68;95.74
49311;BME280;35177;45.900;5.946;2023-10-08T07:20:59;98735.94;;;10.68;94.81
49311;BME280;35177;45.900;5.946;2023-10-08T07:23:37;98739.50;;;10.67;95.42
49311;BME280;35177;45.900;5.946;2023-10-08T07:26:05;98735.72;;;10.72;95.69
49311;BME280;35177;45.900;5.946;2023-10-08T07:28:44;98740.34;;;10.86;95.56
49311;BME280;35177;45.900;5.946;2023-10-08T07:31:24;98735.53;;;10.94;95.18
49311;BME280;35177;45.900;5.946;2023-10-08T07:33:54;98740.38;;;11.03;95.92
49311;BME280;35177;45.900;5.946;2023-10-08T07:36:38;98737.31;;;11.10;94.46
49311;BME280;35177;45.900;5.946;2023-10-08T07:39:04;98734.84;;;11.25;96.68
49311;BME280;35177;45.900;5.946;2023-10-08T07:41:34;98742.88;;;11.23;92.26
49311;BME280;35177;45.900;5.946;2023-10-08T07:43:59;98744.59;;;11.24;92.57
49311;BME280;35177;45.900;5.946;2023-10-08T07:46:25;98736.19;;;11.33;95.56
49311;BME280;35177;45.900;5.946;2023-10-08T07:48:54;98746.16;;;11.45;94.86
49311;BME280;35177;45.900;5.946;2023-10-08T07:51:20;98746.47;;;11.56;94.71
49311;BME280;35177;45.900;5.946;2023-10-08T07:53:52;98731.22;;;11.60;94.19
49311;BME280;35177;45.900;5.946;2023-10-08T07:56:24;98728.06;;;11.70;94.88
49311;BME280;35177;45.900;5.946;2023-10-08T07:58:51;98742.72;;;11.77;95.27
49311;BME280;35177;45.900;5.946;2023-10-08T08:01:16;98745.91;;;11.84;93.98
49311;BME280;35177;45.900;5.946;2023-10-08T08:03:42;98742.13;;;11.88;92.45
49311;BME280;35177;45.900;5.946;2023-10-08T08:06:08;98745.41;;;11.93;90.65
49311;BME280;35177;45.900;5.946;2023-10-08T08:08:35;98744.91;;;12.02;91.97
49311;BME280;35177;45.900;5.946;2023-10-08T08:11:08;98748.97;;;12.25;95.22
49311;BME280;35177;45.900;5.946;2023-10-08T08:13:45;98744.28;;;12.30;93.46
49311;BME280;35177;45.900;5.946;2023-10-08T08:16:11;98738.81;;;12.64;95.58
49311;BME280;35177;45.900;5.946;2023-10-08T08:18:49;98754.22;;;12.73;95.88
49311;BME280;35177;45.900;5.946;2023-10-08T08:21:15;98746.69;;;12.81;93.08
49311;BME280;35177;45.900;5.946;2023-10-08T08:23:42;98750.28;;;13.11;92.65
49311;BME280;35177;45.900;5.946;2023-10-08T08:26:19;98755.81;;;13.52;92.96
49311;BME280;35177;45.900;5.946;2023-10-08T08:29:02;98746.09;;;13.95;92.06
49311;BME280;35177;45.900;5.946;2023-10-08T08:31:30;98754.03;;;13.67;91.56
49311;BME280;35177;45.900;5.946;2023-10-08T08:34:01;98745.09;;;13.54;91.26
49311;BME280;35177;45.900;5.946;2023-10-08T08:36:29;98747.78;;;13.38;89.76
49311;BME280;35177;45.900;5.946;2023-10-08T08:38:55;98751.53;;;13.50;90.34
49311;BME280;35177;45.900;5.946;2023-10-08T08:41:23;98744.13;;;13.55;90.02
49311;BME280;35177;45.900;5.946;2023-10-08T08:43:52;98749.81;;;13.49;91.02
49311;BME280;35177;45.900;5.946;2023-10-08T08:46:37;98747.75;;;13.54;90.63
49311;BME280;35177;45.900;5.946;2023-10-08T08:49:06;98753.47;;;13.76;91.76
49311;BME280;35177;45.900;5.946;2023-10-08T08:51:37;98746.69;;;14.14;89.11
49311;BME280;35177;45.900;5.946;2023-10-08T08:54:03;98752.28;;;14.24;87.94
49311;BME280;35177;45.900;5.946;2023-10-08T08:56:36;98751.03;;;14.15;89.61
49311;BME280;35177;45.900;5.946;2023-10-08T08:59:04;98752.25;;;14.66;86.75
49311;BME280;35177;45.900;5.946;2023-10-08T09:01:30;98751.19;;;14.69;87.20
49311;BME280;35177;45.900;5.946;2023-10-08T09:04:01;98752.06;;;15.10;87.04
49311;BME280;35177;45.900;5.946;2023-10-08T09:06:29;98753.75;;;15.11;84.63
49311;BME280;35177;45.900;5.946;2023-10-08T09:08:59;98757.00;;;14.75;84.98
49311;BME280;35177;45.900;5.946;2023-10-08T09:11:42;98749.47;;;15.08;84.33
49311;BME280;35177;45.900;5.946;2023-10-08T09:14:08;98751.97;;;15.24;83.61
49311;BME280;35177;45.900;5.946;2023-10-08T09:16:35;98757.00;;;15.02;84.05
49311;BME280;35177;45.900;5.946;2023-10-08T09:19:01;98759.69;;;15.02;83.98
49311;BME280;35177;45.900;5.946;2023-10-08T09:21:27;98750.63;;;15.44;84.03
49311;BME280;35177;45.900;5.946;2023-10-08T09:23:52;98740.25;;;15.53;81.82
49311;BME280;35177;45.900;5.946;2023-10-08T09:26:25;98744.19;;;15.73;80.95
49311;BME280;35177;45.900;5.946;2023-10-08T09:28:54;98742.84;;;15.92;80.92
49311;BME280;35177;45.900;5.946;2023-10-08T09:31:23;98736.41;;;15.82;80.76
49311;BME280;35177;45.900;5.946;2023-10-08T09:33:55;98738.78;;;15.74;81.23
49311;BME280;35177;45.900;5.946;2023-10-08T09:36:22;98729.94;;;15.86;81.84
49311;BME280;35177;45.900;5.946;2023-10-08T09:38:59;98723.50;;;16.14;80.22
49311;BME280;35177;45.900;5.946;2023-10-08T09:41:28;98722.41;;;16.29;80.42
49311;BME280;35177;45.900;5.946;2023-10-08T09:43:54;98720.47;;;16.31;78.97
49311;BME280;35177;45.900;5.946;2023-10-08T09:46:24;98720.88;;;16.63;80.43
49311;BME280;35177;45.900;5.946;2023-10-08T09:48:57;98718.16;;;16.76;78.08
49311;BME280;35177;45.900;5.946;2023-10-08T09:51:25;98717.13;;;16.89;76.65
49311;BME280;35177;45.900;5.946;2023-10-08T09:56:35;98719.31;;;17.43;72.24
49311;BME280;35177;45.900;5.946;2023-10-08T09:59:02;98711.06;;;17.46;70.68
49311;BME280;35177;45.900;5.946;2023-10-08T10:01:28;98716.06;;;17.85;69.79
49311;BME280;35177;45.900;5.946;2023-10-08T10:03:54;98706.34;;;17.95;69.76
49311;BME280;35177;45.900;5.946;2023-10-08T10:06:20;98700.84;;;17.96;69.29
49311;BME280;35177;45.900;5.946;2023-10-08T10:08:47;98704.03;;;18.35;67.92
49311;BME280;35177;45.900;5.946;2023-10-08T10:11:15;98708.66;;;18.44;67.23
49311;BME280;35177;45.900;5.946;2023-10-08T10:13:44;98699.25;;;18.83;66.03
49311;BME280;35177;45.900;5.946;2023-10-08T10:16:17;98702.69;;;19.05;65.88
49311;BME280;35177;45.900;5.946;2023-10-08T10:18:44;98693.25;;;19.22;62.62
49311;BME280;35177;45.900;5.946;2023-10-08T10:23:41;98686.19;;;19.53;61.10
49311;BME280;35177;45.900;5.946;2023-10-08T10:26:30;98685.53;;;19.60;61.16
49311;BME280;35177;45.900;5.946;2023-10-08T10:31:41;98676.63;;;20.10;58.53
49311;BME280;35177;45.900;5.946;2023-10-08T10:34:14;98679.03;;;20.34;56.37
49311;BME280;35177;45.900;5.946;2023-10-08T10:36:42;98674.13;;;20.49;55.72
49311;BME280;35177;45.900;5.946;2023-10-08T10:39:12;98675.56;;;20.53;57.11
49311;BME280;35177;45.900;5.946;2023-10-08T10:41:52;98669.50;;;20.60;55.01
49311;BME280;35177;45.900;5.946;2023-10-08T10:44:24;98670.06;;;20.64;55.25
49311;BME280;35177;45.900;5.946;2023-10-08T10:46:50;98663.00;;;20.82;55.12
49311;BME280;35177;45.900;5.946;2023-10-08T10:49:38;98660.50;;;21.00;51.72
49311;BME280;35177;45.900;5.946;2023-10-08T10:52:28;98658.66;;;20.91;54.21
49311;BME280;35177;45.900;5.946;2023-10-08T10:54:59;98662.50;;;21.07;54.85
49311;BME280;35177;45.900;5.946;2023-10-08T10:57:48;98660.25;;;21.22;55.48
49311;BME280;35177;45.900;5.946;2023-10-08T11:00:30;98648.63;;;21.31;54.25
49311;BME280;35177;45.900;5.946;2023-10-08T11:02:59;98647.63;;;21.41;55.15
49311;BME280;35177;45.900;5.946;2023-10-08T11:05:30;98649.19;;;21.44;54.36
49311;BME280;35177;45.900;5.946;2023-10-08T11:07:56;98645.19;;;21.58;52.62
49311;BME280;35177;45.900;5.946;2023-10-08T11:10:42;98645.03;;;21.69;53.28
49311;BME280;35177;45.900;5.946;2023-10-08T11:13:15;98646.16;;;21.76;53.24
49311;BME280;35177;45.900;5.946;2023-10-08T11:15:46;98640.91;;;21.74;53.70
49311;BME280;35177;45.900;5.946;2023-10-08T11:18:20;98637.72;;;21.98;52.23
49311;BME280;35177;45.900;5.946;2023-10-08T11:20:47;98637.19;;;22.31;52.04
49311;BME280;35177;45.900;5.946;2023-10-08T11:23:36;98633.09;;;22.27;51.67
49311;BME280;35177;45.900;5.946;2023-10-08T11:26:05;98625.69;;;22.29;51.58
49311;BME280;35177;45.900;5.946;2023-10-08T11:28:33;98623.34;;;22.71;51.83
49311;BME280;35177;45.900;5.946;2023-10-08T11:31:08;98620.19;;;22.21;51.90
49311;BME280;35177;45.900;5.946;2023-10-08T11:33:40;98619.84;;;22.06;53.72
49311;BME280;35177;45.900;5.946;2023-10-08T11:36:07;98617.22;;;21.87;54.55
49311;BME280;35177;45.900;5.946;2023-10-08T11:38:43;98607.00;;;21.81;54.76
49311;BME280;35177;45.900;5.946;2023-10-08T11:41:13;98609.75;;;22.08;54.30
49311;BME280;35177;45.900;5.946;2023-10-08T11:46:13;98609.75;;;22.08;53.36
49311;BME280;35177;45.900;5.946;2023-10-08T11:48:43;98600.63;;;22.19;53.96
49311;BME280;35177;45.900;5.946;2023-10-08T11:51:12;98604.53;;;22.34;53.13
49311;BME280;35177;45.900;5.946;2023-10-08T11:53:42;98595.13;;;22.38;53.16
49311;BME280;35177;45.900;5.946;2023-10-08T11:56:10;98588.28;;;22.44;51.49
49311;BME280;35177;45.900;5.946;2023-10-08T11:58:41;98583.94;;;22.33;52.60
49311;BME280;35177;45.900;5.946;2023-10-08T12:01:12;98590.16;;;22.16;54.09
49311;BME280;35177;45.900;5.946;2023-10-08T12:03:42;98572.25;;;22.69;51.96
49311;BME280;35177;45.900;5.946;2023-10-08T12:06:09;98571.16;;;22.80;54.09
49311;BME280;35177;45.900;5.946;2023-10-08T12:08:36;98565.59;;;22.81;52.48
49311;BME280;35177;45.900;5.946;2023-10-08T12:11:04;98569.84;;;23.02;51.39
49311;BME280;35177;45.900;5.946;2023-10-08T12:13:40;98561.03;;;23.17;49.78
49311;BME280;35177;45.900;5.946;2023-10-08T12:16:16;98558.78;;;23.13;49.52
49311;BME280;35177;45.900;5.946;2023-10-08T12:18:47;98554.19;;;22.88;53.47
49311;BME280;35177;45.900;5.946;2023-10-08T12:21:22;98554.50;;;22.85;53.50
49311;BME280;35177;45.900;5.946;2023-10-08T12:23:49;98549.16;;;23.10;50.83
49311;BME280;35177;45.900;5.946;2023-10-08T12:26:17;98551.53;;;23.57;49.55
49311;BME280;35177;45.900;5.946;2023-10-08T12:28:47;98543.88;;;23.44;49.52
49311;BME280;35177;45.900;5.946;2023-10-08T12:31:17;98545.03;;;23.67;51.32
49311;BME280;35177;45.900;5.946;2023-10-08T12:33:50;98541.50;;;23.75;49.35
49311;BME280;35177;45.900;5.946;2023-10-08T12:36:19;98533.50;;;23.65;49.12
49311;BME280;35177;45.900;5.946;2023-10-08T12:38:48;98534.06;;;23.69;49.94
49311;BME280;35177;45.900;5.946;2023-10-08T12:41:14;98529.03;;;23.48;49.19
49311;BME280;35177;45.900;5.946;2023-10-08T12:43:42;98531.19;;;23.70;51.02
49311;BME280;35177;45.900;5.946;2023-10-08T12:46:08;98518.78;;;23.85;49.38
49311;BME280;35177;45.900;5.946;2023-10-08T12:48:36;98513.66;;;23.74;49.17
49311;BME280;35177;45.900;5.946;2023-10-08T12:51:02;98510.31;;;24.22;47.57
49311;BME280;35177;45.900;5.946;2023-10-08T12:53:31;98509.50;;;24.38;45.86
49311;BME280;35177;45.900;5.946;2023-10-08T12:56:00;98504.41;;;24.27;47.58
49311;BME280;35177;45.900;5.946;2023-10-08T12:58:30;98510.84;;;24.34;49.56
49311;BME280;35177;45.900;5.946;2023-10-08T13:00:57;98509.28;;;24.15;47.10
49311;BME280;35177;45.900;5.946;2023-10-08T13:03:26;98504.09;;;24.30;49.31
49311;BME280;35177;45.900;5.946;2023-10-08T13:05:56;98510.00;;;24.33;48.93
49311;BME280;35177;45.900;5.946;2023-10-08T13:08:30;98508.75;;;24.11;50.20
49311;BME280;35177;45.900;5.946;2023-10-08T13:10:56;98509.09;;;24.08;50.50
49311;BME280;35177;45.900;5.946;2023-10-08T13:13:26;98504.28;;;23.94;46.17
49311;BME280;35177;45.900;5.946;2023-10-08T13:15:52;98496.78;;;23.88;48.39
49311;BME280;35177;45.900;5.946;2023-10-08T13:18:21;98500.31;;;24.06;47.77
49311;BME280;35177;45.900;5.946;2023-10-08T13:20:46;98492.91;;;23.83;48.38
49311;BME280;35177;45.900;5.946;2023-10-08T13:23:13;98492.06;;;23.82;48.60
49311;BME280;35177;45.900;5.946;2023-10-08T13:25:38;98485.09;;;23.80;48.62
49311;BME280;35177;45.900;5.946;2023-10-08T13:28:05;98485.91;;;23.72;48.60
49311;BME280;35177;45.900;5.946;2023-10-08T13:30:32;98484.63;;;24.26;48.65
49311;BME280;35177;45.900;5.946;2023-10-08T13:32:58;98482.81;;;24.51;46.76
49311;BME280;35177;45.900;5.946;2023-10-08T13:35:25;98487.19;;;24.28;46.29
49311;BME280;35177;45.900;5.946;2023-10-08T13:37:50;98484.50;;;23.94;46.69
49311;BME280;35177;45.900;5.946;2023-10-08T13:40:17;98473.13;;;23.82;49.09
49311;BME280;35177;45.900;5.946;2023-10-08T13:42:43;98479.59;;;24.47;47.46
49311;BME280;35177;45.900;5.946;2023-10-08T13:45:09;98475.72;;;24.50;46.25
49311;BME280;35177;45.900;5.946;2023-10-08T13:47:35;98470.41;;;24.24;46.58